| time (UTC) | temp C | wind direction | speed KPH | gust KPH | rain 1hr cm | rain 24hr cm | rain mn cm | humidity % | barometer mb |
| 20260507113603 | 13 | 115 | 11.3 | 19.3 | 0.00 | 0.00 | 0.00 | 61 | 1013.4 |
| 20260507112703 | 13 | 130 | 11.3 | 20.9 | 0.00 | 0.00 | 0.00 | 61 | 1013.6 |
| 20260507111803 | 14 | 131 | 8.0 | 20.9 | 0.00 | 0.00 | 0.00 | 56 | 1013.5 |
| 20260507110903 | 13 | 133 | 8.0 | 19.3 | 0.00 | 0.00 | 0.00 | 56 | 1013.5 |
| 20260507110003 | 13 | 135 | 6.4 | 19.3 | 0.00 | 0.00 | 0.00 | 59 | 1013.5 |
| 20260507105403 | 13 | 153 | 6.4 | 19.3 | 0.00 | 0.00 | 0.00 | 56 | 1013.5 |
| 20260507104503 | 13 | 124 | 4.8 | 11.3 | 0.00 | 0.00 | 0.00 | 62 | 1013.5 |
| 20260507103603 | 12 | 107 | 8.0 | 17.7 | 0.00 | 0.00 | 0.00 | 58 | 1013.5 |
| 20260507102703 | 13 | 141 | 4.8 | 14.5 | 0.00 | 0.00 | 0.00 | 57 | 1013.6 |
| 20260507101824 | 13 | 161 | 4.8 | 16.1 | 0.00 | 0.00 | 0.00 | 57 | 1013.6 |
| 20260507100903 | 14 | 144 | 4.8 | 12.9 | 0.00 | 0.00 | 0.00 | 57 | 1013.6 |
| 20260507100024 | 12 | 129 | 6.4 | 16.1 | 0.00 | 0.00 | 0.00 | 64 | 1013.6 |
| 20260507095403 | 12 | 120 | 8.0 | 17.7 | 0.00 | 0.00 | 0.00 | 63 | 1013.7 |
| 20260507094503 | 12 | 123 | 8.0 | 17.7 | 0.00 | 0.00 | 0.00 | 59 | 1013.8 |
| 20260507093603 | 12 | 133 | 6.4 | 19.3 | 0.00 | 0.00 | 0.00 | 65 | 1013.6 |
| 20260507092703 | 12 | 126 | 6.4 | 12.9 | 0.00 | 0.00 | 0.00 | 64 | 1013.6 |
| 20260507091803 | 12 | 180 | 4.8 | 12.9 | 0.00 | 0.00 | 0.00 | 69 | 1013.7 |
| 20260507090903 | 12 | 184 | 4.8 | 11.3 | 0.00 | 0.00 | 0.00 | 68 | 1013.7 |
| 20260507090004 | 12 | 194 | 4.8 | 9.7 | 0.00 | 0.00 | 0.00 | 67 | 1013.8 |
| 20260507085403 | 12 | 191 | 3.2 | 12.9 | 0.00 | 0.00 | 0.00 | 68 | 1013.7 |
| 20260507084503 | 12 | 155 | 4.8 | 14.5 | 0.00 | 0.00 | 0.00 | 71 | 1013.8 |
| 20260507083603 | 12 | 117 | 3.2 | 9.7 | 0.00 | 0.00 | 0.00 | 74 | 1013.7 |
| 20260507082703 | 11 | 117 | 3.2 | 9.7 | 0.00 | 0.00 | 0.00 | 77 | 1013.7 |
| 20260507081824 | 11 | 116 | 1.6 | 6.4 | 0.00 | 0.00 | 0.00 | 81 | 1013.7 |
| 20260507080903 | 10 | 115 | 3.2 | 6.4 | 0.00 | 0.00 | 0.00 | 84 | 1013.8 |
| 20260507080024 | 9 | 115 | 4.8 | 11.3 | 0.00 | 0.00 | 0.00 | 84 | 1013.8 |
| 20260507075403 | 10 | 113 | 4.8 | 12.9 | 0.00 | 0.00 | 0.00 | 84 | 1013.7 |
| 20260507074503 | 10 | 111 | 3.2 | 11.3 | 0.00 | 0.00 | 0.00 | 87 | 1013.7 |
| 20260507073603 | 9 | 112 | 4.8 | 12.9 | 0.00 | 0.00 | 0.00 | 88 | 1013.7 |
| 20260507072703 | 9 | 111 | 4.8 | 9.7 | 0.00 | 0.00 | 0.00 | 90 | 1013.6 |
| 20260507071824 | 8 | 111 | 3.2 | 9.7 | 0.00 | 0.00 | 0.00 | 91 | 1013.6 |
| 20260507070903 | 8 | 111 | 3.2 | 9.7 | 0.00 | 0.00 | 0.00 | 91 | 1013.7 |
| 20260507070024 | 8 | 107 | 3.2 | 6.4 | 0.00 | 0.00 | 0.00 | 91 | 1013.6 |
| 20260507065424 | 8 | 89 | 4.8 | 12.9 | 0.00 | 0.00 | 0.00 | 92 | 1013.6 |
| 20260507064524 | 8 | 20 | 1.6 | 6.4 | 0.00 | 0.00 | 0.00 | 91 | 1013.6 |
| 20260507063603 | 7 | 20 | 3.2 | 6.4 | 0.00 | 0.00 | 0.00 | 92 | 1013.5 |
| 20260507062703 | 7 | 20 | 1.6 | 6.4 | 0.00 | 0.00 | 0.00 | 92 | 1013.5 |
| 20260507061803 | 7 | 20 | 1.6 | 6.4 | 0.00 | 0.00 | 0.00 | 92 | 1013.3 |
| 20260507060903 | 7 | 20 | 1.6 | 8.0 | 0.00 | 0.00 | 0.00 | 92 | 1013.3 |
| 20260507060003 | 7 | 19 | 1.6 | 6.4 | 0.00 | 0.00 | 0.00 | 92 | 1013.2 |
| 20260507055424 | 7 | 19 | 3.2 | 6.4 | 0.00 | 0.00 | 0.00 | 92 | 1013.1 |
| 20260507054503 | 7 | 19 | 1.6 | 6.4 | 0.00 | 0.00 | 0.00 | 92 | 1013.2 |
| 20260507053603 | 7 | 19 | 3.2 | 6.4 | 0.00 | 0.00 | 0.00 | 92 | 1013.1 |
| 20260507052724 | 7 | 19 | 1.6 | 4.8 | 0.00 | 0.00 | 0.00 | 92 | 1013.1 |
| 20260507051803 | 7 | 19 | 1.6 | 3.2 | 0.00 | 0.00 | 0.00 | 92 | 1013.1 |
| 20260507050903 | 7 | 19 | 1.6 | 4.8 | 0.00 | 0.00 | 0.00 | 92 | 1013.1 |
| 20260507050005 | 7 | 19 | 1.6 | 4.8 | 0.00 | 0.00 | 0.00 | 92 | 1013.1 |
| 20260507045403 | 7 | 0 | 0.0 | 3.2 | 0.00 | 0.00 | 0.00 | 92 | 1013.0 |
| 20260507044503 | 7 | 0 | 0.0 | 3.2 | 0.00 | 0.00 | 0.00 | 91 | 1013.0 |
| 20260507043603 | 7 | 0 | 0.0 | 3.2 | 0.00 | 0.00 | 0.00 | 91 | 1013.0 |
| 20260507042724 | 7 | 19 | 1.6 | 6.4 | 0.00 | 0.00 | 0.00 | 91 | 1012.9 |
| 20260507041803 | 7 | 19 | 1.6 | 6.4 | 0.00 | 0.00 | 0.00 | 91 | 1012.9 |
| 20260507040903 | 7 | 0 | 0.0 | 1.6 | 0.00 | 0.00 | 0.00 | 91 | 1013.0 |
| 20260507040003 | 7 | 0 | 0.0 | 3.2 | 0.00 | 0.00 | 0.00 | 91 | 1012.9 |
| 20260507035424 | 7 | 19 | 1.6 | 4.8 | 0.00 | 0.00 | 0.00 | 91 | 1012.9 |
| 20260507034524 | 7 | 0 | 0.0 | 0.0 | 0.00 | 0.00 | 0.00 | 91 | 1012.9 |
| 20260507033603 | 7 | 0 | 0.0 | 0.0 | 0.00 | 0.00 | 0.00 | 91 | 1012.9 |
| 20260507032703 | 7 | 0 | 0.0 | 0.0 | 0.00 | 0.00 | 0.00 | 91 | 1012.9 |
| 20260507031803 | 7 | 0 | 0.0 | 0.0 | 0.00 | 0.00 | 0.00 | 91 | 1013.0 |
| 20260507030903 | 7 | 0 | 0.0 | 3.2 | 0.00 | 0.00 | 0.00 | 91 | 1012.9 |
| 20260507030003 | 7 | 0 | 0.0 | 3.2 | 0.00 | 0.00 | 0.00 | 91 | 1012.9 |
| 20260507025403 | 7 | 0 | 0.0 | 3.2 | 0.00 | 0.00 | 0.00 | 91 | 1013.0 |
| 20260507024503 | 7 | 0 | 0.0 | 3.2 | 0.00 | 0.00 | 0.00 | 91 | 1012.9 |
| 20260507023603 | 7 | 0 | 0.0 | 4.8 | 0.00 | 0.00 | 0.00 | 91 | 1012.9 |
| 20260507022703 | 7 | 0 | 0.0 | 3.2 | 0.00 | 0.00 | 0.00 | 91 | 1012.9 |
| 20260507021803 | 7 | 19 | 3.2 | 6.4 | 0.00 | 0.00 | 0.00 | 91 | 1012.9 |
| 20260507020924 | 7 | 19 | 3.2 | 6.4 | 0.00 | 0.00 | 0.00 | 91 | 1012.8 |
| 20260507020003 | 7 | 20 | 3.2 | 6.4 | 0.00 | 0.00 | 0.00 | 91 | 1012.8 |
| 20260507015403 | 7 | 20 | 1.6 | 4.8 | 0.00 | 0.00 | 0.00 | 91 | 1012.9 |
| 20260507014503 | 6 | 20 | 1.6 | 4.8 | 0.00 | 0.00 | 0.00 | 91 | 1012.9 |
| 20260507013603 | 6 | 0 | 0.0 | 0.0 | 0.00 | 0.00 | 0.00 | 91 | 1012.9 |
| 20260507012703 | 6 | 0 | 0.0 | 1.6 | 0.00 | 0.00 | 0.00 | 91 | 1012.9 |
| 20260507011803 | 6 | 0 | 0.0 | 1.6 | 0.00 | 0.00 | 0.00 | 91 | 1012.9 |
| 20260507010924 | 6 | 0 | 0.0 | 3.2 | 0.00 | 0.00 | 0.00 | 91 | 1013.0 |
| 20260507010003 | 6 | 0 | 0.0 | 0.0 | 0.00 | 0.00 | 0.00 | 91 | 1013.0 |
| 20260507005403 | 6 | 0 | 0.0 | 0.0 | 0.00 | 0.00 | 0.00 | 90 | 1012.9 |
| 20260507004503 | 6 | 0 | 0.0 | 1.6 | 0.00 | 0.00 | 0.00 | 90 | 1013.0 |
| 20260507003624 | 6 | 0 | 0.0 | 1.6 | 0.00 | 0.00 | 0.00 | 90 | 1013.0 |
| 20260507002703 | 6 | 0 | 0.0 | 3.2 | 0.00 | 0.00 | 0.00 | 89 | 1013.0 |
| 20260507001803 | 6 | 0 | 0.0 | 3.2 | 0.00 | 0.00 | 0.00 | 89 | 1012.9 |
| 20260507000903 | 6 | 20 | 1.6 | 4.8 | 0.00 | 0.00 | 0.00 | 89 | 1012.9 |
| 20260507000003 | 6 | 20 | 1.6 | 6.4 | 0.00 | 0.00 | 0.00 | 89 | 1012.9 |
| 20260506235403 | 6 | 20 | 3.2 | 6.4 | 0.00 | 0.00 | 0.00 | 89 | 1012.9 |
| 20260506234503 | 7 | 26 | 4.8 | 12.9 | 0.00 | 0.00 | 0.00 | 89 | 1012.8 |
| 20260506233624 | 7 | 31 | 4.8 | 8.0 | 0.00 | 0.00 | 0.00 | 89 | 1012.8 |
| 20260506232703 | 7 | 31 | 4.8 | 9.7 | 0.00 | 0.00 | 0.00 | 89 | 1012.8 |
| 20260506231803 | 7 | 39 | 4.8 | 14.5 | 0.00 | 0.00 | 0.00 | 88 | 1012.9 |
| 20260506230903 | 7 | 45 | 6.4 | 14.5 | 0.00 | 0.00 | 0.00 | 88 | 1012.9 |
| 20260506230004 | 7 | 24 | 6.4 | 14.5 | 0.00 | 0.00 | 0.00 | 88 | 1012.9 |
| 20260506225403 | 7 | 11 | 6.4 | 14.5 | 0.00 | 0.00 | 0.00 | 88 | 1013.0 |
| 20260506224503 | 7 | 14 | 4.8 | 12.9 | 0.00 | 0.00 | 0.00 | 88 | 1012.9 |
| 20260506223603 | 7 | 27 | 3.2 | 8.0 | 0.00 | 0.00 | 0.00 | 88 | 1013.0 |
| 20260506222703 | 7 | 28 | 3.2 | 12.9 | 0.00 | 0.00 | 0.00 | 88 | 1013.0 |
| 20260506221803 | 7 | 28 | 3.2 | 9.7 | 0.00 | 0.00 | 0.00 | 88 | 1012.9 |
| 20260506220903 | 7 | 19 | 4.8 | 12.9 | 0.00 | 0.00 | 0.00 | 88 | 1012.9 |
| 20260506220003 | 7 | 344 | 4.8 | 9.7 | 0.00 | 0.00 | 0.00 | 88 | 1012.9 |
| 20260506215424 | 7 | 342 | 4.8 | 9.7 | 0.00 | 0.00 | 0.00 | 88 | 1013.0 |
| 20260506214524 | 7 | 16 | 6.4 | 14.5 | 0.00 | 0.00 | 0.00 | 88 | 1012.9 |
| 20260506213603 | 7 | 28 | 6.4 | 17.7 | 0.00 | 0.00 | 0.00 | 87 | 1012.8 |
| 20260506212703 | 7 | 16 | 4.8 | 16.1 | 0.00 | 0.00 | 0.00 | 87 | 1012.8 |
| 20260506211824 | 7 | 19 | 4.8 | 14.5 | 0.00 | 0.00 | 0.00 | 87 | 1012.8 |
| 20260506210903 | 7 | 42 | 4.8 | 12.9 | 0.00 | 0.00 | 0.00 | 87 | 1012.8 |
| 20260506210003 | 7 | 34 | 6.4 | 17.7 | 0.00 | 0.00 | 0.00 | 87 | 1012.8 |
| 20260506205403 | 7 | 31 | 8.0 | 17.7 | 0.00 | 0.00 | 0.00 | 86 | 1012.7 |
| 20260506204503 | 7 | 25 | 8.0 | 17.7 | 0.00 | 0.00 | 0.00 | 86 | 1012.6 |
| 20260506203603 | 7 | 20 | 6.4 | 16.1 | 0.00 | 0.00 | 0.00 | 86 | 1012.5 |
| 20260506202703 | 7 | 12 | 4.8 | 11.3 | 0.00 | 0.00 | 0.00 | 86 | 1012.5 |
| 20260506201803 | 7 | 12 | 3.2 | 12.9 | 0.00 | 0.00 | 0.00 | 85 | 1012.5 |
| 20260506200903 | 7 | 14 | 6.4 | 14.5 | 0.00 | 0.00 | 0.00 | 85 | 1012.4 |
| 20260506200024 | 7 | 25 | 6.4 | 17.7 | 0.00 | 0.00 | 0.00 | 84 | 1012.3 |
| 20260506195403 | 7 | 24 | 8.0 | 17.7 | 0.00 | 0.00 | 0.00 | 84 | 1012.3 |
| 20260506194503 | 7 | 21 | 6.4 | 17.7 | 0.00 | 0.00 | 0.00 | 83 | 1012.2 |
| 20260506193603 | 8 | 16 | 6.4 | 16.1 | 0.00 | 0.00 | 0.00 | 83 | 1012.2 |
| 20260506192703 | 8 | 12 | 9.7 | 17.7 | 0.00 | 0.00 | 0.00 | 82 | 1012.2 |
| 20260506191803 | 8 | 26 | 6.4 | 16.1 | 0.00 | 0.00 | 0.00 | 82 | 1012.1 |
| 20260506190903 | 8 | 359 | 4.8 | 9.7 | 0.00 | 0.00 | 0.00 | 81 | 1012.1 |
| 20260506190003 | 8 | 16 | 6.4 | 16.1 | 0.00 | 0.00 | 0.00 | 81 | 1012.1 |
| 20260506185403 | 8 | 3 | 8.0 | 16.1 | 0.00 | 0.00 | 0.00 | 81 | 1012.1 |
| 20260506184503 | 8 | 11 | 8.0 | 20.9 | 0.00 | 0.00 | 0.00 | 80 | 1012.0 |
| 20260506183603 | 8 | 10 | 6.4 | 20.9 | 0.00 | 0.00 | 0.00 | 80 | 1011.9 |
| 20260506182703 | 8 | 23 | 8.0 | 20.9 | 0.00 | 0.00 | 0.00 | 78 | 1011.9 |
| 20260506181803 | 9 | 348 | 4.8 | 14.5 | 0.00 | 0.00 | 0.00 | 78 | 1011.8 |
| 20260506180903 | 9 | 336 | 6.4 | 16.1 | 0.00 | 0.00 | 0.00 | 76 | 1011.7 |
| 20260506180004 | 10 | 341 | 6.4 | 14.5 | 0.00 | 0.00 | 0.00 | 76 | 1011.6 |
| 20260506175403 | 10 | 349 | 6.4 | 19.3 | 0.00 | 0.00 | 0.00 | 75 | 1011.5 |
| 20260506174503 | 10 | 6 | 6.4 | 19.3 | 0.00 | 0.00 | 0.00 | 74 | 1011.4 |
| 20260506173603 | 10 | 357 | 6.4 | 19.3 | 0.00 | 0.00 | 0.00 | 73 | 1011.5 |
| 20260506172703 | 10 | 356 | 6.4 | 14.5 | 0.00 | 0.00 | 0.00 | 73 | 1011.3 |
| 20260506171803 | 10 | 345 | 6.4 | 17.7 | 0.00 | 0.00 | 0.00 | 72 | 1011.3 |
| 20260506170903 | 10 | 340 | 6.4 | 17.7 | 0.00 | 0.00 | 0.00 | 72 | 1011.2 |
| 20260506170003 | 10 | 9 | 6.4 | 19.3 | 0.00 | 0.00 | 0.00 | 71 | 1011.3 |
| 20260506165403 | 10 | 3 | 6.4 | 19.3 | 0.00 | 0.00 | 0.00 | 70 | 1011.3 |
| 20260506164503 | 10 | 7 | 8.0 | 17.7 | 0.00 | 0.00 | 0.00 | 69 | 1011.2 |
| 20260506163624 | 11 | 349 | 4.8 | 14.5 | 0.00 | 0.00 | 0.00 | 68 | 1011.1 |
| 20260506162703 | 11 | 359 | 6.4 | 17.7 | 0.00 | 0.00 | 0.00 | 66 | 1011.1 |
| 20260506161803 | 11 | 355 | 4.8 | 19.3 | 0.00 | 0.00 | 0.00 | 66 | 1011.1 |
| 20260506160903 | 11 | 22 | 6.4 | 19.3 | 0.00 | 0.00 | 0.00 | 66 | 1011.1 |
| 20260506160024 | 11 | 9 | 6.4 | 16.1 | 0.00 | 0.00 | 0.00 | 66 | 1011.2 |
| 20260506155403 | 11 | 338 | 6.4 | 16.1 | 0.00 | 0.00 | 0.00 | 66 | 1011.1 |
| 20260506154503 | 11 | 350 | 8.0 | 17.7 | 0.00 | 0.00 | 0.00 | 66 | 1011.1 |
| 20260506153624 | 11 | 1 | 6.4 | 14.5 | 0.00 | 0.00 | 0.00 | 64 | 1011.1 |
| 20260506152724 | 11 | 10 | 4.8 | 14.5 | 0.00 | 0.00 | 0.00 | 60 | 1011.1 |
| 20260506151803 | 11 | 13 | 6.4 | 16.1 | 0.00 | 0.00 | 0.00 | 60 | 1011.1 |
| 20260506150903 | 11 | 14 | 8.0 | 17.7 | 0.00 | 0.00 | 0.00 | 61 | 1011.1 |
| 20260506150003 | 11 | 25 | 6.4 | 17.7 | 0.00 | 0.00 | 0.00 | 62 | 1011.2 |
| 20260506145403 | 11 | 29 | 8.0 | 17.7 | 0.00 | 0.00 | 0.00 | 61 | 1011.2 |
| 20260506144503 | 11 | 13 | 6.4 | 17.7 | 0.00 | 0.00 | 0.00 | 61 | 1011.2 |
| 20260506143603 | 11 | 9 | 6.4 | 16.1 | 0.00 | 0.00 | 0.00 | 57 | 1011.2 |
| 20260506142703 | 11 | 28 | 6.4 | 16.1 | 0.00 | 0.00 | 0.00 | 58 | 1011.2 |
| 20260506141803 | 11 | 355 | 6.4 | 16.1 | 0.00 | 0.00 | 0.00 | 58 | 1011.2 |
| 20260506140903 | 11 | 16 | 6.4 | 16.1 | 0.00 | 0.00 | 0.00 | 59 | 1011.2 |
| 20260506140003 | 11 | 10 | 6.4 | 17.7 | 0.00 | 0.00 | 0.00 | 62 | 1011.3 |
| 20260506135403 | 11 | 14 | 9.7 | 20.9 | 0.00 | 0.00 | 0.00 | 61 | 1011.3 |
| 20260506134503 | 11 | 329 | 8.0 | 20.9 | 0.00 | 0.00 | 0.00 | 62 | 1011.3 |
| 20260506133603 | 11 | 332 | 8.0 | 19.3 | 0.00 | 0.00 | 0.00 | 65 | 1011.3 |
| 20260506132703 | 11 | 357 | 6.4 | 17.7 | 0.00 | 0.00 | 0.00 | 63 | 1011.3 |
| 20260506131803 | 11 | 330 | 4.8 | 17.7 | 0.00 | 0.00 | 0.00 | 64 | 1011.3 |
| 20260506130903 | 11 | 345 | 6.4 | 16.1 | 0.00 | 0.00 | 0.00 | 62 | 1011.4 |
| 20260506130003 | 11 | 343 | 8.0 | 17.7 | 0.00 | 0.00 | 0.00 | 64 | 1011.3 |
| 20260506125424 | 11 | 325 | 9.7 | 19.3 | 0.00 | 0.00 | 0.00 | 63 | 1011.3 |
| 20260506124503 | 11 | 318 | 8.0 | 20.9 | 0.00 | 0.00 | 0.00 | 65 | 1011.3 |
| 20260506123603 | 11 | 349 | 8.0 | 19.3 | 0.00 | 0.00 | 0.00 | 64 | 1011.3 |
| 20260506122724 | 11 | 345 | 6.4 | 16.1 | 0.00 | 0.00 | 0.00 | 66 | 1011.3 |
| 20260506121824 | 11 | 332 | 8.0 | 17.7 | 0.00 | 0.00 | 0.00 | 66 | 1011.3 |
| 20260506120924 | 11 | 335 | 8.0 | 17.7 | 0.00 | 0.00 | 0.00 | 66 | 1011.3 |
| 20260506120003 | 11 | 317 | 8.0 | 19.3 | 0.00 | 0.00 | 0.00 | 66 | 1011.4 |
| 20260506115403 | 11 | 323 | 8.0 | 20.9 | 0.00 | 0.00 | 0.00 | 67 | 1011.5 |
| 20260506114503 | 11 | 358 | 6.4 | 16.1 | 0.00 | 0.00 | 0.00 | 69 | 1011.5 |